Weather at Düsseldorf Airport

Public forecast

Using degrees Celsius for public forecast. Weather courtesy of forecast.io.

Current aviation weather report (METAR) for Düsseldorf Airport

Retrieved 2021/10/21 14:20 UTC (35 minutes ago):

EDDL 211420Z 28009KT 250V310 9999 VCSH FEW012 FEW022TCU SCT046 10/07 Q1006 NOSIG

Aviation forecast (TAF) for Düsseldorf Airport

Retrieved 2021/10/21 12:28 UTC (2 hours ago):

TAF EDDL 211100Z 2112/2218 25020G30KT 9999 SCT025 TEMPO 2112/2115 SHRA BKN020CB PROB30 TEMPO 2112/2114 28030G40KT 4500 TSRA BKN020CB BECMG 2113/2116 28015G25KT BECMG 2116/2119 24010KT BECMG 2206/2208 25015G25KT BECMG 2209/2211 27020G30KT BECMG 2215/2217 26010KT